createdAt,value
2019-01-11T00:00:47.843Z,3.90
2019-01-11T00:05:32.677Z,3.80
2019-01-11T00:10:17.401Z,4.27
2019-01-11T00:15:02.140Z,4.20
2019-01-11T00:19:46.839Z,4.30
2019-01-11T00:24:31.639Z,6.37
2019-01-11T00:29:16.432Z,6.13
2019-01-11T00:34:01.211Z,6.53
2019-01-11T00:38:47.285Z,7.30
2019-01-11T00:43:32.009Z,7.07
2019-01-11T00:48:17.070Z,6.90
2019-01-11T00:53:01.803Z,7.73
2019-01-11T00:57:46.505Z,6.83
2019-01-11T01:02:31.280Z,7.30
2019-01-11T01:07:16.161Z,7.50
2019-01-11T01:12:01.048Z,7.13
2019-01-11T01:16:46.177Z,8.23
2019-01-11T01:21:30.963Z,9.47
2019-01-11T01:26:15.893Z,9.30
2019-01-11T01:31:00.781Z,12.10
2019-01-11T01:35:45.680Z,12.90
2019-01-11T01:40:30.642Z,11.93
2019-01-11T01:45:16.254Z,9.57
2019-01-11T01:50:00.963Z,10.77
2019-01-11T01:54:45.757Z,9.90
2019-01-11T01:59:30.606Z,10.17
2019-01-11T02:04:15.425Z,10.70
2019-01-11T02:09:00.155Z,10.17
2019-01-11T02:13:45.161Z,10.33
2019-01-11T02:18:29.875Z,9.33
2019-01-11T02:23:14.860Z,10.27
2019-01-11T02:27:59.575Z,9.37
2019-01-11T02:32:44.283Z,9.57
2019-01-11T02:37:28.982Z,10.07
2019-01-11T02:42:13.753Z,8.33
2019-01-11T02:46:58.656Z,9.87
2019-01-11T02:51:43.382Z,9.27
2019-01-11T02:56:28.066Z,9.63
2019-01-11T03:01:12.718Z,10.17
2019-01-11T03:05:57.661Z,9.27
2019-01-11T03:10:42.495Z,9.20
2019-01-11T03:15:27.100Z,10.27
2019-01-11T03:20:12.087Z,9.80
2019-01-11T03:24:56.914Z,9.20
2019-01-11T03:29:41.681Z,9.13
2019-01-11T03:34:26.464Z,8.80
2019-01-11T03:39:11.215Z,8.27
2019-01-11T03:43:56.063Z,8.10
2019-01-11T03:48:40.677Z,7.77
2019-01-11T03:53:25.507Z,7.33
2019-01-11T03:58:11.412Z,7.93
2019-01-11T04:02:56.137Z,7.77
2019-01-11T04:07:40.751Z,7.67
2019-01-11T04:12:25.463Z,7.17
2019-01-11T04:17:10.320Z,8.10
2019-01-11T04:22:19.991Z,8.30
2019-01-11T04:27:04.787Z,8.27
2019-01-11T04:31:49.366Z,7.17
2019-01-11T04:36:34.089Z,7.00
2019-01-11T04:41:18.907Z,7.40
2019-01-11T04:46:03.570Z,7.53
2019-01-11T04:50:48.271Z,6.57
2019-01-11T04:55:33.305Z,6.37
2019-01-11T05:00:23.165Z,6.27
2019-01-11T05:05:08.213Z,6.00
2019-01-11T05:09:53.066Z,6.57
2019-01-11T05:14:37.807Z,5.83
2019-01-11T05:19:22.562Z,6.37
2019-01-11T05:24:07.258Z,5.93
2019-01-11T05:28:51.892Z,6.60
2019-01-11T05:33:36.654Z,6.63
2019-01-11T05:38:21.394Z,7.33
2019-01-11T05:43:06.183Z,8.07
2019-01-11T05:47:50.857Z,8.23
2019-01-11T05:52:35.667Z,7.63
2019-01-11T05:57:20.266Z,8.07
2019-01-11T06:02:05.250Z,7.77
2019-01-11T06:07:14.897Z,8.20
2019-01-11T06:11:59.900Z,8.03
2019-01-11T06:16:44.412Z,8.33
2019-01-11T06:21:29.158Z,10.70
2019-01-11T06:26:13.771Z,8.83
2019-01-11T06:30:58.602Z,6.93
2019-01-11T06:35:43.694Z,8.17
2019-01-11T06:40:32.245Z,7.30
2019-01-11T06:45:16.875Z,7.90
2019-01-11T06:50:01.525Z,7.77
2019-01-11T06:54:48.269Z,7.57
2019-01-11T06:59:32.705Z,7.97
2019-01-11T07:04:17.592Z,9.20
2019-01-11T07:09:02.396Z,8.83
2019-01-11T07:13:47.053Z,9.33
2019-01-11T07:18:31.733Z,9.07
2019-01-11T07:23:16.480Z,10.13
2019-01-11T07:28:03.876Z,9.67
2019-01-11T07:32:48.516Z,9.70
2019-01-11T07:37:33.147Z,9.93
2019-01-11T07:42:17.807Z,9.13
2019-01-11T07:47:02.348Z,10.40
2019-01-11T07:51:49.122Z,10.03
2019-01-11T07:56:33.738Z,9.37
2019-01-11T08:01:18.335Z,9.70
2019-01-11T08:06:02.954Z,8.60
2019-01-11T08:10:47.607Z,9.07
2019-01-11T08:15:32.163Z,9.40
2019-01-11T08:20:16.699Z,8.80
2019-01-11T08:25:04.081Z,8.53
2019-01-11T08:29:48.675Z,7.60
2019-01-11T08:34:33.256Z,9.00
2019-01-11T08:39:17.906Z,8.90
2019-01-11T08:44:02.539Z,8.17
2019-01-11T08:48:47.058Z,8.53
2019-01-11T08:53:31.709Z,8.40
2019-01-11T08:58:16.385Z,8.83
2019-01-11T09:03:01.048Z,8.30
2019-01-11T09:07:45.746Z,7.67
2019-01-11T09:12:30.271Z,7.80
2019-01-11T09:17:14.982Z,8.10
2019-01-11T09:21:59.901Z,7.17
2019-01-11T09:26:44.472Z,7.17
2019-01-11T09:31:29.251Z,6.87
2019-01-11T09:36:13.779Z,6.40
2019-01-11T09:40:58.366Z,6.93
2019-01-11T09:45:43.143Z,5.53
2019-01-11T09:50:27.694Z,5.77
2019-01-11T09:55:13.390Z,5.00
2019-01-11T09:59:58.082Z,5.37
2019-01-11T10:04:42.759Z,4.83
2019-01-11T10:09:27.333Z,5.30
2019-01-11T10:14:11.942Z,5.40
2019-01-11T10:18:56.524Z,5.80
2019-01-11T10:23:41.207Z,5.30
2019-01-11T10:28:25.817Z,5.27
2019-01-11T10:33:10.507Z,5.70
2019-01-11T10:37:55.242Z,6.07
2019-01-11T10:42:39.799Z,4.77
2019-01-11T10:47:24.296Z,5.77
2019-01-11T10:52:10.073Z,5.70
2019-01-11T10:56:54.956Z,5.70
2019-01-11T11:01:39.522Z,4.90
2019-01-11T11:06:24.044Z,4.73
2019-01-11T11:11:08.609Z,4.80
2019-01-11T11:15:54.798Z,5.13
2019-01-11T11:20:39.428Z,5.20
2019-01-11T11:25:24.051Z,5.73
2019-01-11T11:30:10.511Z,5.33
2019-01-11T11:34:55.254Z,4.83
2019-01-11T11:39:39.706Z,5.00
2019-01-11T11:44:24.411Z,4.93
2019-01-11T11:49:09.031Z,5.50
2019-01-11T11:53:55.629Z,4.67
2019-01-11T11:58:40.289Z,5.30
2019-01-11T12:03:29.628Z,4.50
2019-01-11T12:08:14.270Z,5.13
2019-01-11T12:12:58.916Z,5.00
2019-01-11T12:17:43.536Z,4.43
2019-01-11T12:22:28.173Z,4.47
2019-01-11T12:27:12.786Z,5.20
2019-01-11T12:31:57.513Z,4.93
2019-01-11T12:36:42.422Z,5.00
2019-01-11T12:41:27.106Z,4.63
2019-01-11T12:46:11.828Z,4.80
2019-01-11T12:50:56.498Z,4.20
2019-01-11T12:55:41.251Z,4.70
2019-01-11T13:00:26.264Z,4.37
2019-01-11T13:05:12.742Z,4.67
2019-01-11T13:09:57.506Z,4.90
2019-01-11T13:14:42.475Z,4.10
2019-01-11T13:19:27.322Z,4.20
2019-01-11T13:24:11.898Z,4.87
2019-01-11T13:28:57.455Z,4.37
2019-01-11T13:33:42.164Z,4.37
2019-01-11T13:38:26.864Z,4.27
2019-01-11T13:43:12.033Z,4.23
2019-01-11T13:47:58.096Z,4.83
2019-01-11T13:52:46.590Z,5.23
2019-01-11T13:57:35.937Z,5.27
2019-01-11T14:02:21.258Z,5.00
2019-01-11T14:07:06.249Z,5.47
2019-01-11T14:11:55.083Z,6.17
2019-01-11T14:16:40.773Z,6.77
2019-01-11T14:21:25.496Z,7.23
2019-01-11T14:26:10.306Z,5.97
2019-01-11T14:30:55.097Z,6.23
2019-01-11T14:35:39.816Z,6.87
2019-01-11T14:40:24.535Z,6.33
2019-01-11T14:45:11.016Z,7.27
2019-01-11T14:49:55.728Z,7.17
2019-01-11T14:54:40.277Z,7.93
2019-01-11T14:59:24.964Z,7.43
2019-01-11T15:04:09.576Z,7.70
2019-01-11T15:08:54.250Z,9.87
2019-01-11T15:13:38.846Z,9.43
2019-01-11T15:18:23.497Z,7.80
2019-01-11T15:23:13.510Z,7.47
2019-01-11T15:27:54.415Z,7.57
2019-01-11T15:32:39.070Z,7.37
2019-01-11T15:37:23.714Z,7.93
2019-01-11T15:42:08.267Z,6.57
2019-01-11T15:46:52.937Z,7.47
2019-01-11T15:51:37.560Z,8.40
2019-01-11T15:56:31.186Z,8.40
2019-01-11T16:01:15.829Z,8.60
2019-01-11T16:06:27.942Z,9.77
2019-01-11T16:11:29.055Z,9.47
2019-01-11T16:16:27.868Z,8.50
2019-01-11T16:21:12.509Z,12.40
2019-01-11T16:25:57.400Z,8.63
2019-01-11T16:30:42.298Z,6.73
2019-01-11T16:35:27.522Z,10.05
2019-01-11T16:40:12.403Z,7.00
2019-01-11T16:44:57.667Z,7.37
2019-01-11T16:49:43.482Z,6.60
2019-01-11T16:54:29.971Z,7.00
2019-01-11T16:59:37.691Z,6.57
2019-01-11T17:04:23.941Z,7.00
2019-01-11T17:09:16.934Z,6.30
2019-01-11T17:14:07.779Z,5.67
2019-01-11T17:19:05.318Z,6.17
2019-01-11T17:23:52.759Z,6.10
2019-01-11T17:28:52.914Z,6.00
2019-01-11T17:33:41.444Z,5.50
2019-01-11T17:38:55.364Z,5.63
2019-01-11T17:44:19.462Z,6.07
2019-01-11T17:49:27.893Z,6.13
2019-01-11T17:54:20.926Z,5.30
2019-01-11T17:59:14.837Z,5.17
2019-01-11T18:03:59.714Z,5.07
2019-01-11T18:08:44.610Z,5.07
2019-01-11T18:13:41.593Z,4.23
2019-01-11T18:18:29.090Z,4.93
2019-01-11T18:23:14.137Z,5.17
2019-01-11T18:28:08.594Z,6.03
2019-01-11T18:33:46.998Z,5.40
2019-01-11T18:38:32.227Z,6.03
2019-01-11T18:43:22.882Z,6.37
2019-01-11T18:48:08.253Z,6.80
2019-01-11T18:52:53.282Z,7.60
2019-01-11T18:57:38.311Z,7.10
2019-01-11T19:02:23.194Z,7.03
2019-01-11T19:07:09.650Z,7.43
2019-01-11T19:11:54.490Z,7.13
2019-01-11T19:16:39.233Z,7.83
2019-01-11T19:21:24.458Z,8.10
2019-01-11T19:26:11.404Z,8.43
2019-01-11T19:30:56.686Z,9.33
2019-01-11T19:35:41.658Z,10.03
2019-01-11T19:40:26.543Z,9.13
2019-01-11T19:45:12.250Z,8.60
2019-01-11T19:49:57.137Z,8.93
2019-01-11T19:54:42.199Z,9.13
2019-01-11T19:59:38.705Z,9.33
2019-01-11T20:04:23.610Z,8.80
2019-01-11T20:09:09.799Z,8.93
2019-01-11T20:13:54.690Z,9.80
2019-01-11T20:18:39.315Z,9.70
2019-01-11T20:23:34.666Z,10.17
2019-01-11T20:28:15.946Z,10.03
2019-01-11T20:33:01.051Z,11.83
2019-01-11T20:37:47.584Z,10.77
2019-01-11T20:42:32.296Z,11.03
2019-01-11T20:47:16.981Z,11.53
2019-01-11T20:52:01.923Z,10.20
2019-01-11T20:56:46.827Z,11.60
2019-01-11T21:01:31.389Z,11.30
2019-01-11T21:06:16.459Z,11.33
2019-01-11T21:11:01.206Z,9.87
2019-01-11T21:15:46.081Z,9.53
2019-01-11T21:20:30.794Z,9.27
2019-01-11T21:25:16.387Z,9.27
2019-01-11T21:30:29.191Z,9.63
2019-01-11T21:35:23.271Z,11.63
2019-01-11T21:40:10.043Z,11.00
2019-01-11T21:45:05.977Z,9.63
2019-01-11T21:49:53.146Z,9.67
2019-01-11T21:54:46.657Z,8.60
2019-01-11T22:00:00.586Z,9.00
2019-01-11T22:04:51.831Z,8.83
2019-01-11T22:27:20.523Z,10.23
2019-01-11T22:43:28.078Z,11.43
2019-01-11T22:48:34.667Z,10.23
2019-01-11T22:53:27.261Z,10.93
2019-01-11T22:58:45.283Z,10.33
2019-01-11T23:04:00.433Z,9.67
2019-01-11T23:09:30.541Z,10.30
2019-01-11T23:19:51.303Z,9.67
2019-01-11T23:24:38.919Z,9.40
2019-01-11T23:29:25.865Z,9.40
2019-01-11T23:34:10.479Z,8.90
2019-01-11T23:39:20.434Z,9.50
2019-01-11T23:44:05.503Z,8.80
2019-01-11T23:49:38.465Z,9.90
2019-01-11T23:53:55.475Z,9.20
2019-01-11T23:58:43.597Z,8.97
